Time;durP1;ratioP1;P1;durP2;ratioP2;P2;SDS_P1;SDS_P2;PMS_P1;PMS_P2;Temp;Humidity;BMP_temperature;BMP_pressure;BME280_temperature;BME280_humidity;BME280_pressure;Samples;Min_cycle;Max_cycle;Signal;HPM_P1;HPM_P2
2021/12/09 00:02:29;;;;;;;12.27;4.47;;;;;;;3.72;76.54;98584.09;4934454;29;20087;-63
2021/12/09 00:05:00;;;;;;;14.57;5.35;;;;;;;3.71;76.65;98578.13;4935327;29;20043;-63
2021/12/09 00:07:31;;;;;;;8.60;4.55;;;;;;;3.72;76.67;98584.97;4935606;29;20454;-62
2021/12/09 00:10:06;;;;;;;13.85;5.60;;;;;;;3.72;76.40;98584.97;4935203;29;20094;-63
2021/12/09 00:12:37;;;;;;;10.73;5.85;;;;;;;3.68;76.66;98582.28;4934199;29;20450;-62
2021/12/09 00:15:08;;;;;;;10.20;3.95;;;;;;;3.68;76.81;98582.28;4918295;28;20118;-63
2021/12/09 00:17:42;;;;;;;11.85;4.93;;;;;;;3.66;77.07;98575.44;4934339;29;20052;-62
2021/12/09 00:20:15;;;;;;;13.00;4.50;;;;;;;3.65;77.05;98583.97;4918507;29;20044;-62
2021/12/09 00:22:47;;;;;;;14.82;5.53;;;;;;;3.66;76.51;98580.56;4918076;29;20460;-62
2021/12/09 00:25:18;;;;;;;12.10;4.70;;;;;;;3.65;77.07;98591.66;4918196;29;20118;-62
2021/12/09 00:27:51;;;;;;;11.73;4.85;;;;;;;3.65;76.66;98598.47;4918014;29;20098;-62
2021/12/09 00:30:22;;;;;;;14.05;4.75;;;;;;;3.64;76.90;98584.81;4935050;29;20036;-62
2021/12/09 00:32:54;;;;;;;7.85;4.30;;;;;;;3.63;76.43;98590.78;4917922;29;20047;-62
2021/12/09 00:35:30;;;;;;;13.52;5.55;;;;;;;3.62;77.01;98604.41;4933956;29;20051;-63
2021/12/09 00:38:07;;;;;;;8.75;4.13;;;;;;;3.60;76.65;98600.94;4935260;29;20063;-62
2021/12/09 00:40:39;;;;;;;11.18;4.70;;;;;;;3.60;76.55;98600.94;4934241;29;20047;-63
2021/12/09 00:43:10;;;;;;;13.70;4.53;;;;;;;3.59;76.57;98598.34;4934878;29;20044;-63
2021/12/09 00:45:41;;;;;;;9.88;4.28;;;;;;;3.60;76.43;98610.31;4917836;29;20519;-62
2021/12/09 00:48:13;;;;;;;11.27;4.63;;;;;;;3.59;76.53;98598.34;4917922;29;20055;-63
2021/12/09 00:50:44;;;;;;;8.18;3.78;;;;;;;3.60;76.90;98600.94;4933592;29;20126;-63
2021/12/09 00:53:18;;;;;;;10.95;4.85;;;;;;;3.59;76.82;98604.34;4917566;28;20032;-63
2021/12/09 00:55:52;;;;;;;12.50;4.45;;;;;;;3.58;76.76;98597.50;4933929;29;20043;-63
2021/12/09 00:58:23;;;;;;;10.13;4.93;;;;;;;3.59;76.53;98594.09;4934788;29;20050;-62
2021/12/09 01:00:51;;;;;;;9.60;4.10;;;;;;;3.61;77.14;98596.69;4933502;29;20040;-62
2021/12/09 01:03:22;;;;;;;12.82;4.45;;;;;;;3.60;76.60;98600.94;4934395;29;20284;-63
2021/12/09 01:05:54;;;;;;;12.60;4.15;;;;;;;3.60;76.57;98602.63;4934594;29;20394;-63
2021/12/09 01:08:25;;;;;;;15.40;4.57;;;;;;;3.60;76.61;98592.38;4933326;29;20043;-63
2021/12/09 01:11:00;;;;;;;7.25;4.60;;;;;;;3.62;77.18;98593.28;4933374;29;20035;-63
2021/12/09 01:13:29;;;;;;;7.93;4.00;;;;;;;3.61;76.56;98602.69;4934444;29;20042;-63
2021/12/09 01:16:00;;;;;;;11.55;4.57;;;;;;;3.63;76.77;98610.38;4933092;29;20043;-62
2021/12/09 01:18:34;;;;;;;7.87;4.40;;;;;;;3.65;76.53;98616.41;4918001;29;20035;-63
2021/12/09 01:21:06;;;;;;;11.13;3.60;;;;;;;3.65;76.58;98616.41;4933359;29;20086;-62
2021/12/09 01:23:38;;;;;;;8.85;4.97;;;;;;;3.66;76.54;98613.88;4917511;29;20047;-63
2021/12/09 01:26:10;;;;;;;11.30;4.18;;;;;;;3.66;76.30;98620.72;4934287;29;20139;-63
2021/12/09 01:28:47;;;;;;;10.18;4.32;;;;;;;3.68;76.85;98620.72;4932989;29;20043;-63
2021/12/09 01:31:23;;;;;;;10.00;4.65;;;;;;;3.68;76.63;98610.47;4917729;29;20039;-63
2021/12/09 01:34:01;;;;;;;9.57;5.13;;;;;;;3.65;76.94;98612.16;4932730;29;20039;-63
2021/12/09 01:36:36;;;;;;;7.38;4.40;;;;;;;3.65;76.66;98607.03;4934099;29;20032;-63
2021/12/09 01:39:09;;;;;;;10.10;4.22;;;;;;;3.66;76.52;98613.03;4932835;29;20052;-63
2021/12/09 01:41:40;;;;;;;10.27;4.05;;;;;;;3.66;76.83;98613.03;4934220;29;20035;-63
2021/12/09 01:44:12;;;;;;;15.85;4.53;;;;;;;3.63;76.87;98616.41;4916853;28;20051;-63
2021/12/09 01:46:43;;;;;;;8.60;3.72;;;;;;;3.60;76.75;98607.75;4917119;29;20089;-63
2021/12/09 01:49:17;;;;;;;10.80;4.32;;;;;;;3.58;76.32;98617.97;4934271;29;20043;-63
2021/12/09 01:51:51;;;;;;;9.43;4.32;;;;;;;3.58;76.53;98617.97;4932940;29;20051;-63
2021/12/09 01:54:24;;;;;;;8.90;3.58;;;;;;;3.56;76.77;98614.53;4932597;29;20044;-63
2021/12/09 01:56:55;;;;;;;7.95;3.88;;;;;;;3.53;76.97;98619.56;4932622;29;20063;-63
2021/12/09 01:59:26;;;;;;;9.70;3.75;;;;;;;3.55;77.06;98622.19;4916701;29;20036;-63
2021/12/09 02:01:57;;;;;;;9.35;4.22;;;;;;;3.53;77.10;98614.44;4916403;29;20059;-63
2021/12/09 02:04:29;;;;;;;9.68;4.15;;;;;;;3.53;77.13;98611.03;4916411;29;20483;-63
2021/12/09 02:07:00;;;;;;;6.03;3.60;;;;;;;3.54;76.88;98620.44;4916997;28;20044;-63
2021/12/09 02:09:31;;;;;;;7.10;3.90;;;;;;;3.52;77.18;98619.56;4916610;29;20043;-63
2021/12/09 02:12:03;;;;;;;11.00;4.47;;;;;;;3.53;76.59;98617.00;4916774;28;20044;-63
2021/12/09 02:14:41;;;;;;;16.58;4.70;;;;;;;3.54;76.63;98620.44;4933508;29;20028;-63
2021/12/09 02:17:12;;;;;;;9.45;4.30;;;;;;;3.52;77.18;98620.41;4932065;29;20047;-63
2021/12/09 02:19:51;;;;;;;7.60;3.95;;;;;;;3.53;76.99;98611.03;4932529;29;20090;-62
2021/12/09 02:22:22;;;;;;;7.07;4.03;;;;;;;3.51;76.88;98613.56;4933568;29;20070;-62
2021/12/09 02:24:55;;;;;;;10.45;4.60;;;;;;;3.52;76.86;98607.59;4916453;28;20086;-63
2021/12/09 02:27:29;;;;;;;8.43;4.22;;;;;;;3.52;76.48;98615.28;4932513;29;20040;-62
2021/12/09 02:30:00;;;;;;;6.97;3.65;;;;;;;3.50;76.78;98604.16;4932566;29;20036;-62
2021/12/09 02:32:31;;;;;;;10.90;5.13;;;;;;;3.48;76.83;98604.09;4916670;28;20400;-62
2021/12/09 02:35:05;;;;;;;8.80;4.32;;;;;;;3.46;76.40;98599.78;4916722;28;20051;-62
2021/12/09 02:37:36;;;;;;;8.52;4.80;;;;;;;3.46;76.39;98600.66;4916209;28;20418;-62
2021/12/09 02:40:09;;;;;;;12.60;4.35;;;;;;;3.45;76.70;98604.03;4916492;29;20043;-62
2021/12/09 02:42:43;;;;;;;6.70;3.97;;;;;;;3.46;76.59;98600.66;4933269;29;20074;-63
2021/12/09 02:45:14;;;;;;;8.32;4.35;;;;;;;3.45;77.02;98603.19;4916040;29;20058;-63
2021/12/09 02:47:48;;;;;;;12.40;4.65;;;;;;;3.44;76.38;98604.03;4916070;29;20043;-63
2021/12/09 02:50:19;;;;;;;9.70;4.53;;;;;;;3.44;76.28;98609.13;4933383;29;20078;-63
2021/12/09 02:52:50;;;;;;;8.10;4.78;;;;;;;3.43;77.11;98607.41;4932209;29;20151;-63
2021/12/09 02:55:21;;;;;;;8.55;4.22;;;;;;;3.43;77.14;98598.00;4916087;29;20036;-63
2021/12/09 02:57:56;;;;;;;14.95;4.80;;;;;;;3.42;77.08;98593.75;4915988;29;20094;-63
2021/12/09 03:00:30;;;;;;;6.30;4.15;;;;;;;3.44;76.32;98599.75;4931853;29;20028;-63
2021/12/09 03:03:04;;;;;;;9.57;4.50;;;;;;;3.42;76.91;98596.31;4931700;29;20063;-63
2021/12/09 03:05:35;;;;;;;6.80;3.90;;;;;;;3.43;76.57;98604.84;4916139;28;20050;-63
2021/12/09 03:08:08;;;;;;;8.35;5.20;;;;;;;3.44;76.61;98601.47;4915774;29;20046;-63
2021/12/09 03:10:39;;;;;;;9.48;4.05;;;;;;;3.44;76.63;98602.31;4916050;29;20044;-63
2021/12/09 03:13:11;;;;;;;9.35;4.25;;;;;;;3.44;76.51;98596.34;4915547;29;20130;-63
2021/12/09 03:15:42;;;;;;;10.75;5.10;;;;;;;3.45;76.94;98598.91;4931690;29;20044;-63
2021/12/09 03:18:13;;;;;;;6.43;3.85;;;;;;;3.43;77.07;98603.13;4915956;29;20040;-63
2021/12/09 03:20:44;;;;;;;9.38;4.68;;;;;;;3.45;76.55;98598.06;4915696;28;20051;-63
2021/12/09 03:23:15;;;;;;;10.90;4.72;;;;;;;3.43;76.69;98600.56;4932707;29;20513;-63
2021/12/09 03:25:52;;;;;;;11.18;3.92;;;;;;;3.42;76.68;98598.00;4931625;29;20043;-63
2021/12/09 03:28:23;;;;;;;9.23;4.35;;;;;;;3.39;76.47;98600.47;4933799;29;20048;-62
2021/12/09 03:30:54;;;;;;;11.88;4.82;;;;;;;3.38;77.10;98603.88;4919056;29;20043;-63
2021/12/09 03:33:25;;;;;;;7.10;4.32;;;;;;;3.36;76.85;98608.97;4918535;29;20584;-62
2021/12/09 03:36:04;;;;;;;9.85;5.80;;;;;;;3.35;76.82;98620.03;4918636;29;20146;-63
2021/12/09 03:38:36;;;;;;;10.63;4.40;;;;;;;3.35;76.96;98612.38;4918536;28;20085;-62
2021/12/09 03:41:07;;;;;;;8.65;4.68;;;;;;;3.34;76.57;98620.88;4919075;29;20109;-62
2021/12/09 03:43:40;;;;;;;9.48;5.25;;;;;;;3.32;76.46;98625.97;4918950;29;20032;-63
2021/12/09 03:46:11;;;;;;;10.52;4.40;;;;;;;3.31;76.70;98620.81;4934711;29;20054;-63
2021/12/09 03:48:43;;;;;;;10.63;5.22;;;;;;;3.29;76.45;98620.78;4918528;29;20407;-63
2021/12/09 03:51:14;;;;;;;13.57;4.78;;;;;;;3.29;76.46;98633.59;4918979;29;20047;-63
2021/12/09 03:53:45;;;;;;;8.32;3.67;;;;;;;3.29;76.80;98630.16;4918891;28;20051;-63
2021/12/09 03:56:16;;;;;;;7.43;4.45;;;;;;;3.27;76.98;98626.72;4918253;28;20522;-62
2021/12/09 03:58:49;;;;;;;10.60;4.63;;;;;;;3.29;76.58;98627.59;4935532;29;20042;-62
2021/12/09 04:01:18;;;;;;;11.98;4.63;;;;;;;3.25;76.50;98629.22;4935676;29;20050;-62
2021/12/09 04:03:49;;;;;;;10.88;5.18;;;;;;;3.25;76.85;98624.09;4918248;29;20032;-62
2021/12/09 04:06:20;;;;;;;12.35;5.65;;;;;;;3.26;76.92;98630.09;4935610;29;20040;-62
2021/12/09 04:08:53;;;;;;;12.68;4.97;;;;;;;3.25;76.49;98642.03;4918368;29;20487;-62
2021/12/09 04:11:25;;;;;;;15.43;4.70;;;;;;;3.24;76.81;98627.47;4934207;29;20051;-62
2021/12/09 04:13:57;;;;;;;7.40;4.43;;;;;;;3.23;76.61;98628.31;4934103;29;20499;-62
2021/12/09 04:16:29;;;;;;;15.35;4.47;;;;;;;3.22;76.93;98630.84;4918634;29;20043;-62
2021/12/09 04:19:00;;;;;;;9.35;4.85;;;;;;;3.22;76.98;98624.03;4934099;29;20093;-63
2021/12/09 04:21:32;;;;;;;9.95;5.65;;;;;;;3.24;77.10;98636.88;4918246;29;20055;-63
2021/12/09 04:24:08;;;;;;;7.72;4.63;;;;;;;3.22;76.87;98626.56;4934002;29;20074;-64
2021/12/09 04:26:42;;;;;;;7.15;3.88;;;;;;;3.20;77.04;98631.69;4934008;29;20439;-63
2021/12/09 04:29:17;;;;;;;9.85;4.57;;;;;;;3.20;76.76;98630.78;4934304;29;20048;-62
2021/12/09 04:31:51;;;;;;;12.23;5.15;;;;;;;3.19;76.95;98636.78;4935162;29;20043;-62
2021/12/09 04:34:22;;;;;;;10.48;5.22;;;;;;;3.20;76.62;98639.38;4934950;29;20122;-62
2021/12/09 04:36:53;;;;;;;11.48;4.55;;;;;;;3.20;76.97;98643.59;4917834;29;20054;-62
2021/12/09 04:39:27;;;;;;;7.70;4.30;;;;;;;3.19;76.46;98649.56;4917987;29;20476;-63
2021/12/09 04:41:58;;;;;;;10.32;4.72;;;;;;;3.16;76.47;98655.47;4933784;29;20036;-62
2021/12/09 04:44:31;;;;;;;11.83;6.17;;;;;;;3.16;76.43;98660.59;4934858;29;20434;-62
2021/12/09 04:47:02;;;;;;;7.72;5.22;;;;;;;3.18;76.38;98658.09;4918105;29;20418;-63
2021/12/09 04:49:33;;;;;;;7.80;5.18;;;;;;;3.19;76.55;98660.69;4917484;29;20147;-63
2021/12/09 04:52:00;;;;;;;9.30;5.78;;;;;;;3.22;76.46;98662.44;4933618;29;20034;-62
2021/12/09 04:54:27;;;;;;;9.07;4.93;;;;;;;3.25;76.31;98666.78;4934371;29;20044;-62
2021/12/09 04:56:58;;;;;;;7.75;4.45;;;;;;;3.23;77.04;98665.88;4934717;29;20032;-62
2021/12/09 04:59:26;;;;;;;10.52;5.43;;;;;;;3.23;76.55;98674.41;4917562;29;20507;-63
2021/12/09 05:01:58;;;;;;;9.52;5.07;;;;;;;3.25;76.76;98671.91;4934566;29;20134;-63
2021/12/09 05:04:24;;;;;;;7.95;5.20;;;;;;;3.24;76.92;98667.59;4918349;28;20407;-62
2021/12/09 05:06:55;;;;;;;13.32;6.32;;;;;;;3.21;76.65;98676.06;4934295;29;20051;-62
2021/12/09 05:09:28;;;;;;;13.77;5.57;;;;;;;3.19;76.82;98667.50;4917673;28;20043;-63
2021/12/09 05:12:01;;;;;;;8.18;6.13;;;;;;;3.19;76.33;98670.91;4933347;29;20563;-63
2021/12/09 05:14:32;;;;;;;11.25;4.93;;;;;;;3.18;76.99;98673.44;4934518;29;20046;-63
2021/12/09 05:17:04;;;;;;;11.80;5.50;;;;;;;3.16;76.39;98677.66;4917908;28;20043;-63
2021/12/09 05:19:35;;;;;;;6.45;4.65;;;;;;;3.14;76.59;98682.72;4933193;29;20051;-63
2021/12/09 05:22:06;;;;;;;10.45;5.40;;;;;;;3.12;76.74;98684.38;4934549;29;20040;-63
2021/12/09 05:24:37;;;;;;;11.77;6.45;;;;;;;3.13;76.92;98698.06;4933154;29;20127;-63
2021/12/09 05:27:13;;;;;;;10.18;6.28;;;;;;;3.13;76.57;98686.13;4917927;29;20031;-63
2021/12/09 05:29:46;;;;;;;8.63;5.27;;;;;;;3.11;76.34;98686.91;4933418;29;20054;-62
2021/12/09 05:32:17;;;;;;;13.07;5.80;;;;;;;3.10;76.54;98687.75;4934122;29;20458;-62
2021/12/09 05:34:50;;;;;;;13.38;6.05;;;;;;;3.10;76.60;98693.75;4934040;29;20039;-62
2021/12/09 05:37:22;;;;;;;9.68;6.80;;;;;;;3.09;76.72;98698.81;4932805;29;20131;-62
2021/12/09 05:39:59;;;;;;;10.23;5.72;;;;;;;3.07;76.49;98692.78;4917370;28;20036;-62
2021/12/09 05:42:30;;;;;;;14.07;7.20;;;;;;;3.04;76.53;98697.00;4934070;29;20039;-63
2021/12/09 05:45:05;;;;;;;13.60;6.95;;;;;;;3.02;76.74;98698.69;4917024;29;20043;-63
2021/12/09 05:47:36;;;;;;;10.02;6.10;;;;;;;3.01;76.29;98696.06;4933938;29;20067;-62
2021/12/09 05:50:08;;;;;;;7.43;5.90;;;;;;;3.00;76.78;98702.91;4933955;29;20042;-62
2021/12/09 05:52:39;;;;;;;13.25;7.30;;;;;;;2.98;76.62;98704.53;4932302;29;20044;-62
2021/12/09 05:55:13;;;;;;;14.38;7.18;;;;;;;2.99;76.77;98702.84;4917116;29;20032;-62
2021/12/09 05:57:44;;;;;;;13.50;7.90;;;;;;;3.00;76.88;98705.44;4932757;29;20117;-62
2021/12/09 06:00:15;;;;;;;10.10;7.32;;;;;;;2.99;76.98;98707.97;4932368;29;20035;-63
2021/12/09 06:02:47;;;;;;;14.15;7.65;;;;;;;2.99;77.14;98705.41;4916796;29;20118;-63
2021/12/09 06:05:18;;;;;;;24.70;8.43;;;;;;;2.97;76.99;98704.50;4932722;29;20127;-63
2021/12/09 06:07:50;;;;;;;12.77;6.78;;;;;;;2.96;76.71;98706.19;4916893;29;20051;-63
2021/12/09 06:10:21;;;;;;;15.05;7.22;;;;;;;2.96;76.22;98713.88;4916761;29;20043;-63
2021/12/09 06:12:52;;;;;;;15.68;6.90;;;;;;;2.96;77.17;98708.75;4932355;29;20067;-63
2021/12/09 06:15:25;;;;;;;15.00;7.85;;;;;;;2.97;76.48;98712.16;4916316;29;20039;-63
2021/12/09 06:17:57;;;;;;;12.50;7.82;;;;;;;2.95;76.94;98707.03;4916380;29;20507;-63
2021/12/09 06:20:25;;;;;;;10.52;6.88;;;;;;;2.95;76.56;98707.03;4916423;29;20040;-63
2021/12/09 06:22:50;;;;;;;14.57;7.25;;;;;;;2.97;76.68;98713.06;4933501;29;20439;-63
2021/12/09 06:25:24;;;;;;;11.77;7.28;;;;;;;2.98;76.77;98725.03;4932164;29;20036;-63
2021/12/09 06:27:56;;;;;;;11.95;7.35;;;;;;;2.98;76.60;98721.56;4916538;29;20059;-63
2021/12/09 06:30:30;;;;;;;16.27;7.40;;;;;;;2.96;76.63;98719.00;4932602;29;20403;-63
2021/12/09 06:33:02;;;;;;;16.17;7.70;;;;;;;2.96;77.09;98708.75;4933086;29;20071;-63
2021/12/09 06:35:37;;;;;;;15.40;7.57;;;;;;;2.94;77.12;98715.53;4916450;28;20059;-63
2021/12/09 06:38:15;;;;;;;13.35;7.70;;;;;;;2.95;76.61;98712.13;4933467;29;20439;-63
2021/12/09 06:40:46;;;;;;;18.73;8.52;;;;;;;2.95;77.00;98722.38;4932151;29;20043;-63
2021/12/09 06:43:18;;;;;;;13.10;7.60;;;;;;;2.97;76.63;98723.28;4916616;29;20083;-63
2021/12/09 06:45:51;;;;;;;15.20;6.60;;;;;;;2.99;76.84;98726.75;4916306;28;20096;-63
2021/12/09 06:48:20;;;;;;;16.38;7.28;;;;;;;3.01;76.69;98714.88;4933493;29;20399;-63
2021/12/09 06:50:51;;;;;;;11.93;7.82;;;;;;;3.04;77.23;98724.31;4916062;28;20039;-63
2021/12/09 06:53:19;;;;;;;13.70;7.80;;;;;;;3.03;77.09;98725.13;4916566;29;20040;-63
2021/12/09 06:55:52;;;;;;;11.27;7.47;;;;;;;3.01;77.01;98730.22;4933465;29;20483;-63
2021/12/09 06:58:23;;;;;;;11.43;7.97;;;;;;;3.02;76.73;98734.53;4915964;29;20050;-63
2021/12/09 07:00:50;;;;;;;11.80;8.32;;;;;;;3.03;76.89;98733.69;4932866;29;20048;-63
2021/12/09 07:03:22;;;;;;;9.65;7.03;;;;;;;3.04;76.71;98732.00;4918204;29;20523;-63
2021/12/09 07:05:53;;;;;;;15.80;7.55;;;;;;;3.06;76.65;98738.00;4919456;29;20398;-63
2021/12/09 07:08:27;;;;;;;12.48;7.10;;;;;;;3.04;76.97;98737.97;4936212;29;20103;-63
2021/12/09 07:10:58;;;;;;;12.65;8.13;;;;;;;3.03;76.67;98732.81;4934951;29;20028;-63
2021/12/09 07:13:31;;;;;;;15.30;6.70;;;;;;;3.02;77.01;98734.53;4934999;29;20479;-63
2021/12/09 07:16:06;;;;;;;12.77;7.38;;;;;;;3.03;76.61;98732.81;4919547;29;20082;-63
2021/12/09 07:18:37;;;;;;;14.25;6.43;;;;;;;3.04;76.87;98726.88;4919593;29;20043;-63
2021/12/09 07:21:09;;;;;;;12.82;6.75;;;;;;;3.02;76.71;98724.28;4919562;29;20071;-63
2021/12/09 07:23:40;;;;;;;14.10;6.15;;;;;;;3.02;76.76;98729.41;4934995;29;20036;-63
2021/12/09 07:26:11;;;;;;;12.10;6.70;;;;;;;3.03;76.89;98735.38;4918851;29;20044;-62
2021/12/09 07:28:40;;;;;;;11.98;7.22;;;;;;;3.04;76.92;98727.72;4919141;29;20399;-62
2021/12/09 07:31:16;;;;;;;14.77;8.23;;;;;;;3.03;76.99;98731.13;4935925;29;20040;-63
2021/12/09 07:33:50;;;;;;;10.63;7.00;;;;;;;3.02;76.78;98731.06;4934801;29;20103;-63
2021/12/09 07:36:23;;;;;;;15.52;7.40;;;;;;;3.03;76.89;98740.50;4934812;29;20062;-64
2021/12/09 07:38:59;;;;;;;13.02;7.65;;;;;;;3.02;77.09;98744.75;4919000;29;20055;-63
2021/12/09 07:41:30;;;;;;;14.27;7.95;;;;;;;3.03;76.59;98751.63;4936017;29;20036;-63
2021/12/09 07:44:02;;;;;;;14.40;7.53;;;;;;;2.99;77.30;98747.25;4918538;29;20518;-63
2021/12/09 07:46:30;;;;;;;10.23;6.80;;;;;;;3.01;77.21;98748.16;4935792;29;20032;-63
2021/12/09 07:49:01;;;;;;;12.23;7.40;;;;;;;3.03;76.95;98746.50;4935602;29;20046;-63
2021/12/09 07:51:35;;;;;;;12.75;8.15;;;;;;;3.04;76.75;98739.66;4919039;28;20051;-63
2021/12/09 07:54:12;;;;;;;14.65;8.40;;;;;;;3.03;76.66;98738.81;4918700;29;20043;-63
2021/12/09 07:56:44;;;;;;;13.40;6.97;;;;;;;3.04;76.64;98740.53;4933963;29;20036;-63
2021/12/09 07:59:11;;;;;;;18.42;7.75;;;;;;;3.04;76.56;98737.97;4934187;29;20054;-64
2021/12/09 08:01:38;;;;;;;15.88;8.23;;;;;;;3.03;77.19;98740.50;4932319;29;20053;-63
2021/12/09 08:04:10;;;;;;;15.45;8.02;;;;;;;3.04;77.19;98726.88;4918139;29;20509;-62
2021/12/09 08:06:46;;;;;;;13.90;7.20;;;;;;;3.04;76.83;98730.28;4918434;29;20490;-62
2021/12/09 08:09:12;;;;;;;18.35;7.38;;;;;;;3.02;76.99;98728.53;4934407;29;20466;-63
2021/12/09 08:11:44;;;;;;;11.82;7.32;;;;;;;3.01;76.67;98737.03;4934258;29;20517;-63
2021/12/09 08:14:16;;;;;;;21.60;8.35;;;;;;;3.01;76.57;98737.03;4917327;29;20395;-63
2021/12/09 08:17:10;;;;;;;18.40;7.40;;;;;;;3.00;76.86;98731.06;4933971;29;20442;-63
2021/12/09 08:19:35;;;;;;;11.65;6.90;;;;;;;3.00;77.05;98740.41;4934112;29;20463;-63
2021/12/09 08:22:11;;;;;;;14.57;7.55;;;;;;;3.00;76.56;98742.97;4933928;29;20384;-62
2021/12/09 08:24:48;;;;;;;11.57;7.38;;;;;;;2.98;76.79;98740.38;4934012;29;20043;-63
2021/12/09 08:27:13;;;;;;;10.48;7.13;;;;;;;2.99;76.93;98744.69;4934206;29;20039;-63
2021/12/09 08:29:39;;;;;;;14.80;7.00;;;;;;;3.00;76.97;98748.97;4933728;29;20043;-63
2021/12/09 08:32:12;;;;;;;11.32;6.40;;;;;;;3.00;77.30;98741.28;4933821;29;20063;-63
2021/12/09 08:34:46;;;;;;;13.10;6.82;;;;;;;3.00;76.66;98740.41;4935010;29;20119;-63
2021/12/09 08:37:17;;;;;;;33.22;7.68;;;;;;;2.99;76.93;98737.00;4933843;29;20044;-62
2021/12/09 08:39:51;;;;;;;13.32;7.00;;;;;;;3.01;77.12;98735.34;4918318;29;20066;-62
2021/12/09 08:42:25;;;;;;;18.25;6.35;;;;;;;3.01;77.13;98739.59;4935122;29;20047;-62
2021/12/09 08:44:56;;;;;;;8.90;5.60;;;;;;;3.00;77.15;98741.28;4918024;28;20039;-62
2021/12/09 08:47:30;;;;;;;12.13;7.43;;;;;;;3.01;76.91;98740.47;4917862;29;20134;-63
2021/12/09 08:50:06;;;;;;;12.85;5.88;;;;;;;3.02;77.16;98749.88;4934121;29;20071;-63
2021/12/09 08:52:43;;;;;;;9.93;6.13;;;;;;;3.01;76.86;98743.03;4933962;29;20447;-63
2021/12/09 08:55:09;;;;;;;12.35;6.53;;;;;;;3.02;77.38;98744.75;4933670;29;20755;-62
2021/12/09 08:57:38;;;;;;;14.13;7.50;;;;;;;3.03;77.21;98737.94;4934663;29;20038;-62
2021/12/09 09:00:10;;;;;;;14.73;6.40;;;;;;;3.03;77.34;98746.50;4917461;29;20032;-63
2021/12/09 09:02:39;;;;;;;18.42;8.07;;;;;;;3.03;77.19;98738.81;4933102;29;20273;-62
2021/12/09 09:05:13;;;;;;;13.48;7.60;;;;;;;3.05;77.29;98755.06;4934380;29;20046;-62
2021/12/09 09:07:41;;;;;;;;;;;;;;;3.04;77.29;98748.19;4935049;29;20032;-62
2021/12/09 09:10:12;;;;;;;14.48;6.47;;;;;;;3.01;76.83;98745.59;4933286;29;19919;-62
2021/12/09 09:12:40;;;;;;;11.80;6.80;;;;;;;3.03;76.98;98751.63;4934325;28;20047;-62
2021/12/09 09:15:08;;;;;;;13.20;6.90;;;;;;;3.04;77.39;98752.47;4917318;28;20043;-62
2021/12/09 09:17:36;;;;;;;12.88;7.15;;;;;;;3.07;77.01;98754.22;4917722;29;20092;-62
2021/12/09 09:20:23;;;;;;;13.38;6.78;;;;;;;3.07;77.40;98760.22;4933195;29;20040;-62
2021/12/09 09:22:49;;;;;;;16.90;7.20;;;;;;;3.09;77.58;98757.69;4914180;28;20058;-62
2021/12/09 09:25:19;;;;;;;13.07;7.85;;;;;;;3.10;77.17;98767.13;4913933;29;20040;-62
2021/12/09 09:27:46;;;;;;;11.38;7.13;;;;;;;3.10;77.41;98762.00;4930431;29;20040;-62
2021/12/09 09:30:14;;;;;;;20.13;7.85;;;;;;;3.10;76.88;98768.00;4915498;29;20572;-62
2021/12/09 09:32:41;;;;;;;11.70;7.20;;;;;;;3.11;77.47;98758.59;4913903;29;20051;-63
2021/12/09 09:35:09;;;;;;;15.90;7.45;;;;;;;3.13;77.36;98765.50;4913905;29;20047;-62
2021/12/09 09:37:34;;;;;;;15.35;7.05;;;;;;;3.12;76.95;98768.88;4913909;29;20098;-63
2021/12/09 09:40:01;;;;;;;12.13;7.25;;;;;;;3.11;77.41;98774.84;4913527;29;20032;-63
2021/12/09 09:45:06;;;;;;;9.90;6.72;;;;;;;3.14;77.47;98777.47;4914905;29;20079;-63
2021/12/09 09:47:31;;;;;;;11.48;6.70;;;;;;;3.13;77.18;98768.03;4913730;28;20047;-62
2021/12/09 09:49:58;;;;;;;9.68;6.60;;;;;;;3.15;77.64;98770.66;4913735;29;20036;-63
2021/12/09 09:52:24;;;;;;;15.88;7.78;;;;;;;3.15;77.76;98773.22;4913566;28;20451;-63
2021/12/09 09:54:52;;;;;;;13.48;7.00;;;;;;;3.15;77.36;98763.00;4913569;29;20040;-63
2021/12/09 09:57:19;;;;;;;12.27;6.88;;;;;;;3.18;77.01;98770.75;4914519;29;20098;-63
2021/12/09 09:59:45;;;;;;;11.20;6.68;;;;;;;3.17;76.97;98767.31;4913530;29;20032;-63
2021/12/09 10:02:12;;;;;;;10.38;6.75;;;;;;;3.20;77.32;98763.94;4914610;29;20056;-63
2021/12/09 10:07:12;;;;;;;8.90;6.45;;;;;;;3.19;77.20;98767.38;4915214;29;20107;-62
2021/12/09 10:09:39;;;;;;;11.20;5.82;;;;;;;3.20;77.45;98769.94;4913863;29;20140;-62
2021/12/09 10:12:05;;;;;;;9.55;5.97;;;;;;;3.20;77.60;98782.75;4914617;29;20096;-62
2021/12/09 10:14:33;;;;;;;8.35;5.80;;;;;;;3.19;77.37;98765.66;4914607;29;20044;-62
2021/12/09 10:17:11;;;;;;;8.88;4.95;;;;;;;3.18;77.44;98770.75;4913680;29;20040;-62
2021/12/09 10:19:59;;;;;;;8.88;5.53;;;;;;;3.17;77.06;98767.31;4914487;29;20044;-62
2021/12/09 10:22:30;;;;;;;9.60;6.47;;;;;;;3.18;77.83;98773.31;4914152;28;20488;-62
2021/12/09 10:24:58;;;;;;;6.82;5.10;;;;;;;3.17;77.35;98767.31;4913533;28;20063;-62
2021/12/09 10:27:31;;;;;;;6.85;5.72;;;;;;;3.18;77.44;98768.19;4897961;29;20044;-62
2021/12/09 10:30:14;;;;;;;8.73;6.43;;;;;;;3.18;78.00;98773.31;4914364;29;20048;-62
2021/12/09 10:32:41;;;;;;;11.32;4.85;;;;;;;3.18;76.98;98771.59;4914377;29;20127;-62
2021/12/09 10:35:20;;;;;;;9.40;5.97;;;;;;;3.17;77.57;98759.63;4913279;29;20036;-63
2021/12/09 10:37:50;;;;;;;9.90;5.80;;;;;;;3.18;77.94;98760.50;4916055;29;20044;-63
2021/12/09 10:40:19;;;;;;;9.43;5.18;;;;;;;3.17;77.54;98764.75;4900746;29;20396;-63
2021/12/09 10:42:54;;;;;;;6.40;5.50;;;;;;;3.17;77.14;98753.66;4900681;29;20071;-63
2021/12/09 10:45:30;;;;;;;12.02;5.97;;;;;;;3.16;77.15;98751.91;4917801;29;20039;-62
2021/12/09 10:48:22;;;;;;;9.05;6.93;;;;;;;3.18;77.36;98752.81;4916620;28;20036;-62
2021/12/09 10:55:55;;;;;;;6.50;5.00;;;;;;;3.15;77.57;98738.22;4916221;29;20476;-63
2021/12/09 10:58:25;;;;;;;7.32;4.55;;;;;;;3.16;77.87;98757.03;4916188;28;20070;-63
2021/12/09 11:00:59;;;;;;;7.90;4.80;;;;;;;3.14;77.08;98736.50;4916196;28;20134;-63
2021/12/09 11:03:33;;;;;;;5.40;4.80;;;;;;;3.14;77.51;98740.78;4915848;29;20059;-63
2021/12/09 11:06:03;;;;;;;8.00;4.70;;;;;;;3.15;77.77;98745.06;4915902;28;20514;-62
2021/12/09 11:08:32;;;;;;;12.32;4.72;;;;;;;3.14;77.85;98740.78;4915902;29;20036;-62
2021/12/09 11:11:11;;;;;;;7.93;6.22;;;;;;;3.13;77.71;98750.13;4917117;29;20052;-62
2021/12/09 11:13:44;;;;;;;8.75;5.28;;;;;;;3.14;77.67;98749.31;4915927;29;20036;-63
2021/12/09 11:16:11;;;;;;;7.40;5.70;;;;;;;3.14;77.85;98749.31;4916423;29;20044;-63
2021/12/09 11:18:45;;;;;;;7.22;6.32;;;;;;;3.16;77.81;98744.25;4915866;29;20078;-63
2021/12/09 11:21:11;;;;;;;8.15;6.32;;;;;;;3.15;77.37;98743.34;4916146;29;20050;-63
2021/12/09 11:23:46;;;;;;;9.55;6.30;;;;;;;3.14;77.74;98748.44;4917329;29;20131;-63
2021/12/09 11:26:27;;;;;;;8.63;5.32;;;;;;;3.17;77.82;98744.25;4914699;29;20337;-64
2021/12/09 11:29:05;;;;;;;7.43;5.35;;;;;;;3.17;78.21;98739.13;4913610;29;20043;-64
2021/12/09 11:31:35;;;;;;;7.15;5.13;;;;;;;3.17;77.47;98745.97;4916242;29;20044;-63
2021/12/09 11:34:10;;;;;;;9.45;6.22;;;;;;;3.17;77.61;98743.41;4916717;29;20102;-63
2021/12/09 11:36:46;;;;;;;7.88;5.60;;;;;;;3.19;77.32;98745.16;4915820;29;20044;-63
2021/12/09 11:39:19;;;;;;;5.53;4.75;;;;;;;3.19;77.64;98741.75;4916976;28;20067;-63
2021/12/09 11:41:46;;;;;;;6.75;5.28;;;;;;;3.20;77.39;98748.59;4925390;29;20064;-64
2021/12/09 11:44:12;;;;;;;5.50;4.68;;;;;;;3.20;77.80;98738.34;4916614;29;20036;-65
2021/12/09 11:46:40;;;;;;;4.85;4.28;;;;;;;3.20;78.21;98736.66;4932431;29;20032;-64
2021/12/09 11:49:08;;;;;;;7.85;5.05;;;;;;;3.22;77.80;98733.28;4916674;29;20182;-63
2021/12/09 11:51:37;;;;;;;9.38;4.65;;;;;;;3.23;77.90;98737.56;4935549;29;20391;-63
2021/12/09 11:54:10;;;;;;;8.25;4.78;;;;;;;3.22;77.60;98734.13;4934398;29;20059;-63
2021/12/09 12:11:11;;;;;;;6.32;4.85;;;;;;;3.24;77.61;98729.06;4935518;29;20483;-62
2021/12/09 12:11:17;;;;;;;8.73;4.40;;;;;;;3.25;77.57;98720.56;4933664;28;20056;-63
2021/12/09 12:13:58;;;;;;;5.72;4.07;;;;;;;3.25;77.77;98728.22;4933878;29;20543;-62
2021/12/09 12:19:35;;;;;;;8.63;4.80;;;;;;;3.25;77.95;98718.84;4935497;29;20047;-62
2021/12/09 12:25:38;;;;;;;;;;;;;;;3.25;77.87;98711.16;4935833;29;20051;-62
2021/12/09 12:37:11;;;;;;;8.77;3.90;;;;;;;3.26;77.63;98706.94;4935153;29;20093;-63